sensor_id;sensor_type;location;lat;lon;timestamp;temperature;humidity
64654;DHT22;51065;48.884;12.598;2022-07-23T00:00:57;20.10;99.50
64654;DHT22;51065;48.884;12.598;2022-07-23T00:03:23;20.10;99.50
64654;DHT22;51065;48.884;12.598;2022-07-23T00:05:49;20.10;99.50
64654;DHT22;51065;48.884;12.598;2022-07-23T00:08:14;20.00;99.70
64654;DHT22;51065;48.884;12.598;2022-07-23T00:10:40;19.90;99.90
64654;DHT22;51065;48.884;12.598;2022-07-23T00:13:06;19.90;99.90
64654;DHT22;51065;48.884;12.598;2022-07-23T00:15:31;19.90;99.90
64654;DHT22;51065;48.884;12.598;2022-07-23T00:17:57;19.90;99.90
64654;DHT22;51065;48.884;12.598;2022-07-23T00:20:22;19.90;99.90
64654;DHT22;51065;48.884;12.598;2022-07-23T00:22:53;19.90;99.80
64654;DHT22;51065;48.884;12.598;2022-07-23T00:25:21;20.00;99.90
64654;DHT22;51065;48.884;12.598;2022-07-23T00:27:46;20.10;99.80
64654;DHT22;51065;48.884;12.598;2022-07-23T00:30:12;20.30;99.20
64654;DHT22;51065;48.884;12.598;2022-07-23T00:32:56;20.30;99.00
64654;DHT22;51065;48.884;12.598;2022-07-23T00:35:23;20.40;99.00
64654;DHT22;51065;48.884;12.598;2022-07-23T00:37:49;20.50;99.10
64654;DHT22;51065;48.884;12.598;2022-07-23T00:40:15;20.60;99.50
64654;DHT22;51065;48.884;12.598;2022-07-23T00:42:41;20.60;99.30
64654;DHT22;51065;48.884;12.598;2022-07-23T00:45:07;20.70;99.60
64654;DHT22;51065;48.884;12.598;2022-07-23T00:47:33;20.60;99.80
64654;DHT22;51065;48.884;12.598;2022-07-23T00:49:59;20.60;99.90
64654;DHT22;51065;48.884;12.598;2022-07-23T00:52:25;20.50;99.90
64654;DHT22;51065;48.884;12.598;2022-07-23T00:54:51;20.40;99.90
64654;DHT22;51065;48.884;12.598;2022-07-23T00:57:17;20.40;99.90
64654;DHT22;51065;48.884;12.598;2022-07-23T00:59:43;20.30;99.90
64654;DHT22;51065;48.884;12.598;2022-07-23T01:02:09;20.30;99.90
64654;DHT22;51065;48.884;12.598;2022-07-23T01:04:34;20.20;99.90
64654;DHT22;51065;48.884;12.598;2022-07-23T01:07:00;20.20;99.90
64654;DHT22;51065;48.884;12.598;2022-07-23T01:09:26;20.10;99.90
64654;DHT22;51065;48.884;12.598;2022-07-23T01:11:54;20.10;99.90
64654;DHT22;51065;48.884;12.598;2022-07-23T01:14:20;20.10;99.90
64654;DHT22;51065;48.884;12.598;2022-07-23T01:16:47;20.10;99.90
64654;DHT22;51065;48.884;12.598;2022-07-23T01:19:13;20.20;99.90
64654;DHT22;51065;48.884;12.598;2022-07-23T01:21:41;20.40;99.80
64654;DHT22;51065;48.884;12.598;2022-07-23T01:24:08;20.50;99.20
64654;DHT22;51065;48.884;12.598;2022-07-23T01:26:35;20.50;98.90
64654;DHT22;51065;48.884;12.598;2022-07-23T01:29:00;20.50;99.10
64654;DHT22;51065;48.884;12.598;2022-07-23T01:31:26;20.60;98.50
64654;DHT22;51065;48.884;12.598;2022-07-23T01:33:52;20.60;98.40
64654;DHT22;51065;48.884;12.598;2022-07-23T01:36:17;20.60;98.50
64654;DHT22;51065;48.884;12.598;2022-07-23T01:38:43;20.60;98.70
64654;DHT22;51065;48.884;12.598;2022-07-23T01:41:08;20.60;98.70
64654;DHT22;51065;48.884;12.598;2022-07-23T01:43:34;20.50;98.90
64654;DHT22;51065;48.884;12.598;2022-07-23T01:45:59;20.50;99.90
64654;DHT22;51065;48.884;12.598;2022-07-23T01:48:25;20.40;99.60
64654;DHT22;51065;48.884;12.598;2022-07-23T01:50:50;20.30;99.90
64654;DHT22;51065;48.884;12.598;2022-07-23T01:53:16;20.30;99.90
64654;DHT22;51065;48.884;12.598;2022-07-23T01:55:42;20.30;99.90
64654;DHT22;51065;48.884;12.598;2022-07-23T01:58:07;20.30;99.90
64654;DHT22;51065;48.884;12.598;2022-07-23T02:00:33;20.30;99.80
64654;DHT22;51065;48.884;12.598;2022-07-23T02:02:59;20.30;99.80
64654;DHT22;51065;48.884;12.598;2022-07-23T02:05:28;20.30;99.90
64654;DHT22;51065;48.884;12.598;2022-07-23T02:08:00;20.30;99.90
64654;DHT22;51065;48.884;12.598;2022-07-23T02:10:27;20.20;99.90
64654;DHT22;51065;48.884;12.598;2022-07-23T02:12:53;20.20;99.90
64654;DHT22;51065;48.884;12.598;2022-07-23T02:15:19;20.20;99.90
64654;DHT22;51065;48.884;12.598;2022-07-23T02:17:44;20.20;99.90
64654;DHT22;51065;48.884;12.598;2022-07-23T02:20:10;20.20;99.90
64654;DHT22;51065;48.884;12.598;2022-07-23T02:22:37;20.10;99.90
64654;DHT22;51065;48.884;12.598;2022-07-23T02:25:04;20.10;99.90
64654;DHT22;51065;48.884;12.598;2022-07-23T02:27:30;20.10;99.90
64654;DHT22;51065;48.884;12.598;2022-07-23T02:29:56;20.10;99.90
64654;DHT22;51065;48.884;12.598;2022-07-23T02:32:22;20.20;99.90
64654;DHT22;51065;48.884;12.598;2022-07-23T02:34:48;20.30;99.90
64654;DHT22;51065;48.884;12.598;2022-07-23T02:37:14;20.40;99.90
64654;DHT22;51065;48.884;12.598;2022-07-23T02:39:40;20.60;99.90
64654;DHT22;51065;48.884;12.598;2022-07-23T02:42:05;21.10;98.90
64654;DHT22;51065;48.884;12.598;2022-07-23T02:44:31;21.50;97.90
64654;DHT22;51065;48.884;12.598;2022-07-23T02:46:56;21.70;97.30
64654;DHT22;51065;48.884;12.598;2022-07-23T02:49:22;21.70;97.10
64654;DHT22;51065;48.884;12.598;2022-07-23T02:51:48;21.70;97.30
64654;DHT22;51065;48.884;12.598;2022-07-23T02:54:13;21.60;97.50
64654;DHT22;51065;48.884;12.598;2022-07-23T02:56:39;21.60;97.80
64654;DHT22;51065;48.884;12.598;2022-07-23T02:59:04;21.50;98.70
64654;DHT22;51065;48.884;12.598;2022-07-23T03:01:30;21.50;99.40
64654;DHT22;51065;48.884;12.598;2022-07-23T03:03:55;21.50;99.90
64654;DHT22;51065;48.884;12.598;2022-07-23T03:06:21;21.50;99.90
64654;DHT22;51065;48.884;12.598;2022-07-23T03:08:47;21.50;99.90
64654;DHT22;51065;48.884;12.598;2022-07-23T03:11:12;21.50;99.90
64654;DHT22;51065;48.884;12.598;2022-07-23T03:13:39;21.50;99.90
64654;DHT22;51065;48.884;12.598;2022-07-23T03:16:05;21.40;99.90
64654;DHT22;51065;48.884;12.598;2022-07-23T03:18:31;21.40;99.90
64654;DHT22;51065;48.884;12.598;2022-07-23T03:20:56;21.30;99.90
64654;DHT22;51065;48.884;12.598;2022-07-23T03:23:22;21.30;99.90
64654;DHT22;51065;48.884;12.598;2022-07-23T03:25:48;21.20;99.90
64654;DHT22;51065;48.884;12.598;2022-07-23T03:28:14;21.20;99.90
64654;DHT22;51065;48.884;12.598;2022-07-23T03:30:47;21.20;99.90
64654;DHT22;51065;48.884;12.598;2022-07-23T03:33:16;21.20;99.90
64654;DHT22;51065;48.884;12.598;2022-07-23T03:35:46;21.20;99.90
64654;DHT22;51065;48.884;12.598;2022-07-23T03:38:12;21.10;99.90
64654;DHT22;51065;48.884;12.598;2022-07-23T03:40:38;20.90;99.90
64654;DHT22;51065;48.884;12.598;2022-07-23T03:43:03;20.80;99.90
64654;DHT22;51065;48.884;12.598;2022-07-23T03:45:30;20.50;99.90
64654;DHT22;51065;48.884;12.598;2022-07-23T03:47:55;20.30;99.90
64654;DHT22;51065;48.884;12.598;2022-07-23T03:50:21;20.00;99.90
64654;DHT22;51065;48.884;12.598;2022-07-23T03:52:46;19.80;99.90
64654;DHT22;51065;48.884;12.598;2022-07-23T03:55:12;19.70;99.90
64654;DHT22;51065;48.884;12.598;2022-07-23T03:57:38;19.50;99.90
64654;DHT22;51065;48.884;12.598;2022-07-23T04:00:05;19.50;99.90
64654;DHT22;51065;48.884;12.598;2022-07-23T04:02:31;19.60;99.90
64654;DHT22;51065;48.884;12.598;2022-07-23T04:04:57;19.60;99.90
64654;DHT22;51065;48.884;12.598;2022-07-23T04:07:23;19.50;99.90
64654;DHT22;51065;48.884;12.598;2022-07-23T04:09:48;19.50;99.90
64654;DHT22;51065;48.884;12.598;2022-07-23T04:12:14;19.40;99.90
64654;DHT22;51065;48.884;12.598;2022-07-23T04:14:40;19.40;99.90
64654;DHT22;51065;48.884;12.598;2022-07-23T04:17:06;19.40;99.90
64654;DHT22;51065;48.884;12.598;2022-07-23T04:19:31;19.30;99.90
64654;DHT22;51065;48.884;12.598;2022-07-23T04:21:57;19.20;99.90
64654;DHT22;51065;48.884;12.598;2022-07-23T04:24:23;19.20;99.90
64654;DHT22;51065;48.884;12.598;2022-07-23T04:26:48;19.20;99.90
64654;DHT22;51065;48.884;12.598;2022-07-23T04:29:14;19.20;99.90
64654;DHT22;51065;48.884;12.598;2022-07-23T04:31:39;19.20;99.90
64654;DHT22;51065;48.884;12.598;2022-07-23T04:34:05;19.20;99.90
64654;DHT22;51065;48.884;12.598;2022-07-23T04:36:31;19.30;99.90
64654;DHT22;51065;48.884;12.598;2022-07-23T04:38:56;19.20;99.90
64654;DHT22;51065;48.884;12.598;2022-07-23T04:41:22;19.10;99.90
64654;DHT22;51065;48.884;12.598;2022-07-23T04:43:47;19.10;99.90
64654;DHT22;51065;48.884;12.598;2022-07-23T04:46:13;19.00;99.90
64654;DHT22;51065;48.884;12.598;2022-07-23T04:48:39;18.90;99.90
64654;DHT22;51065;48.884;12.598;2022-07-23T04:51:04;18.80;99.90
64654;DHT22;51065;48.884;12.598;2022-07-23T04:53:30;18.70;99.90
64654;DHT22;51065;48.884;12.598;2022-07-23T04:55:55;18.60;99.90
64654;DHT22;51065;48.884;12.598;2022-07-23T04:58:21;18.50;99.90
64654;DHT22;51065;48.884;12.598;2022-07-23T05:00:47;18.50;99.90
64654;DHT22;51065;48.884;12.598;2022-07-23T05:03:12;18.40;99.90
64654;DHT22;51065;48.884;12.598;2022-07-23T05:05:38;18.40;99.90
64654;DHT22;51065;48.884;12.598;2022-07-23T05:08:04;18.30;99.90
64654;DHT22;51065;48.884;12.598;2022-07-23T05:10:29;18.40;99.90
64654;DHT22;51065;48.884;12.598;2022-07-23T05:12:55;18.50;99.90
64654;DHT22;51065;48.884;12.598;2022-07-23T05:15:21;18.60;99.90
64654;DHT22;51065;48.884;12.598;2022-07-23T05:17:46;18.70;99.90
64654;DHT22;51065;48.884;12.598;2022-07-23T05:20:12;18.80;99.90
64654;DHT22;51065;48.884;12.598;2022-07-23T05:22:38;18.90;99.90
64654;DHT22;51065;48.884;12.598;2022-07-23T05:25:04;19.10;99.90
64654;DHT22;51065;48.884;12.598;2022-07-23T05:27:30;19.40;99.90
64654;DHT22;51065;48.884;12.598;2022-07-23T05:29:56;19.80;99.90
64654;DHT22;51065;48.884;12.598;2022-07-23T05:32:22;20.20;99.90
64654;DHT22;51065;48.884;12.598;2022-07-23T05:34:47;20.60;99.90
64654;DHT22;51065;48.884;12.598;2022-07-23T05:37:13;21.00;99.90
64654;DHT22;51065;48.884;12.598;2022-07-23T05:39:38;21.40;99.90
64654;DHT22;51065;48.884;12.598;2022-07-23T05:42:04;21.50;99.90
64654;DHT22;51065;48.884;12.598;2022-07-23T05:44:30;21.70;99.90
64654;DHT22;51065;48.884;12.598;2022-07-23T05:46:55;21.80;99.90
64654;DHT22;51065;48.884;12.598;2022-07-23T05:49:21;21.70;99.90
64654;DHT22;51065;48.884;12.598;2022-07-23T05:51:46;21.80;99.90
64654;DHT22;51065;48.884;12.598;2022-07-23T05:54:12;21.80;99.90
64654;DHT22;51065;48.884;12.598;2022-07-23T05:56:37;21.70;99.90
64654;DHT22;51065;48.884;12.598;2022-07-23T05:59:03;21.80;99.90
64654;DHT22;51065;48.884;12.598;2022-07-23T06:01:29;21.90;99.90
64654;DHT22;51065;48.884;12.598;2022-07-23T06:03:54;22.10;99.90
64654;DHT22;51065;48.884;12.598;2022-07-23T06:06:20;22.30;99.90
64654;DHT22;51065;48.884;12.598;2022-07-23T06:08:45;22.40;99.90
64654;DHT22;51065;48.884;12.598;2022-07-23T06:11:11;22.90;99.90
64654;DHT22;51065;48.884;12.598;2022-07-23T06:13:36;23.30;99.90
64654;DHT22;51065;48.884;12.598;2022-07-23T06:16:02;23.40;99.90
64654;DHT22;51065;48.884;12.598;2022-07-23T06:18:28;23.30;99.90
64654;DHT22;51065;48.884;12.598;2022-07-23T06:20:53;23.20;99.90
64654;DHT22;51065;48.884;12.598;2022-07-23T06:23:19;23.20;99.90
64654;DHT22;51065;48.884;12.598;2022-07-23T06:25:45;23.00;99.90
64654;DHT22;51065;48.884;12.598;2022-07-23T06:28:11;23.10;99.90
64654;DHT22;51065;48.884;12.598;2022-07-23T06:30:36;23.20;99.90
64654;DHT22;51065;48.884;12.598;2022-07-23T06:33:02;23.40;99.90
64654;DHT22;51065;48.884;12.598;2022-07-23T06:35:28;24.00;99.20
64654;DHT22;51065;48.884;12.598;2022-07-23T06:37:53;24.40;96.80
64654;DHT22;51065;48.884;12.598;2022-07-23T06:40:19;24.80;95.20
64654;DHT22;51065;48.884;12.598;2022-07-23T06:42:45;24.80;94.90
64654;DHT22;51065;48.884;12.598;2022-07-23T06:45:11;25.20;94.40
64654;DHT22;51065;48.884;12.598;2022-07-23T06:47:36;25.50;94.40
64654;DHT22;51065;48.884;12.598;2022-07-23T06:50:05;25.90;93.30
64654;DHT22;51065;48.884;12.598;2022-07-23T06:52:31;26.00;92.90
64654;DHT22;51065;48.884;12.598;2022-07-23T06:54:56;26.30;92.00
64654;DHT22;51065;48.884;12.598;2022-07-23T06:57:22;26.20;87.00
64654;DHT22;51065;48.884;12.598;2022-07-23T06:59:48;26.10;86.90
64654;DHT22;51065;48.884;12.598;2022-07-23T07:02:14;26.00;90.30
64654;DHT22;51065;48.884;12.598;2022-07-23T07:04:39;25.90;88.30
64654;DHT22;51065;48.884;12.598;2022-07-23T07:07:05;26.20;84.90
64654;DHT22;51065;48.884;12.598;2022-07-23T07:09:30;26.40;83.40
64654;DHT22;51065;48.884;12.598;2022-07-23T07:11:56;26.70;86.70
64654;DHT22;51065;48.884;12.598;2022-07-23T07:14:22;27.10;80.70
64654;DHT22;51065;48.884;12.598;2022-07-23T07:16:50;27.10;78.30
64654;DHT22;51065;48.884;12.598;2022-07-23T07:19:16;27.20;80.20
64654;DHT22;51065;48.884;12.598;2022-07-23T07:21:41;27.90;81.40
64654;DHT22;51065;48.884;12.598;2022-07-23T07:24:07;27.70;72.20
64654;DHT22;51065;48.884;12.598;2022-07-23T07:26:32;27.60;73.50
64654;DHT22;51065;48.884;12.598;2022-07-23T07:28:58;27.40;76.90
64654;DHT22;51065;48.884;12.598;2022-07-23T07:31:24;26.80;78.40
64654;DHT22;51065;48.884;12.598;2022-07-23T07:33:49;26.40;81.50
64654;DHT22;51065;48.884;12.598;2022-07-23T07:36:15;26.00;81.00
64654;DHT22;51065;48.884;12.598;2022-07-23T07:38:40;25.80;82.30
64654;DHT22;51065;48.884;12.598;2022-07-23T07:41:06;25.90;89.10
64654;DHT22;51065;48.884;12.598;2022-07-23T07:43:33;26.10;87.70
64654;DHT22;51065;48.884;12.598;2022-07-23T07:45:58;26.30;86.40
64654;DHT22;51065;48.884;12.598;2022-07-23T07:48:24;26.70;83.80
64654;DHT22;51065;48.884;12.598;2022-07-23T07:50:50;26.90;78.40
64654;DHT22;51065;48.884;12.598;2022-07-23T07:53:15;27.50;79.60
64654;DHT22;51065;48.884;12.598;2022-07-23T07:55:41;27.70;74.30
64654;DHT22;51065;48.884;12.598;2022-07-23T07:58:06;28.00;72.40
64654;DHT22;51065;48.884;12.598;2022-07-23T08:00:32;27.80;73.70
64654;DHT22;51065;48.884;12.598;2022-07-23T08:02:58;27.60;74.70
64654;DHT22;51065;48.884;12.598;2022-07-23T08:05:26;27.50;76.10
64654;DHT22;51065;48.884;12.598;2022-07-23T08:07:51;27.60;75.10
64654;DHT22;51065;48.884;12.598;2022-07-23T08:10:18;28.30;73.40
64654;DHT22;51065;48.884;12.598;2022-07-23T08:12:50;28.90;69.90
64654;DHT22;51065;48.884;12.598;2022-07-23T08:15:17;28.10;71.00
64654;DHT22;51065;48.884;12.598;2022-07-23T08:17:44;27.60;71.70
64654;DHT22;51065;48.884;12.598;2022-07-23T08:20:13;27.40;72.40
64654;DHT22;51065;48.884;12.598;2022-07-23T08:22:47;28.00;68.70
64654;DHT22;51065;48.884;12.598;2022-07-23T08:25:14;28.50;68.40
64654;DHT22;51065;48.884;12.598;2022-07-23T08:27:40;28.90;70.90
64654;DHT22;51065;48.884;12.598;2022-07-23T08:30:06;29.00;67.40
64654;DHT22;51065;48.884;12.598;2022-07-23T08:32:32;29.50;67.50
64654;DHT22;51065;48.884;12.598;2022-07-23T08:34:58;29.80;63.60
64654;DHT22;51065;48.884;12.598;2022-07-23T08:37:23;29.60;63.30
64654;DHT22;51065;48.884;12.598;2022-07-23T08:39:49;29.00;65.30
64654;DHT22;51065;48.884;12.598;2022-07-23T08:42:14;28.70;64.60
64654;DHT22;51065;48.884;12.598;2022-07-23T08:44:45;28.90;64.50
64654;DHT22;51065;48.884;12.598;2022-07-23T08:47:11;29.00;61.90
64654;DHT22;51065;48.884;12.598;2022-07-23T08:49:38;28.80;61.40
64654;DHT22;51065;48.884;12.598;2022-07-23T08:52:05;28.50;63.30
64654;DHT22;51065;48.884;12.598;2022-07-23T08:54:31;28.40;66.90
64654;DHT22;51065;48.884;12.598;2022-07-23T08:56:57;28.40;64.20
64654;DHT22;51065;48.884;12.598;2022-07-23T08:59:23;28.20;64.40
64654;DHT22;51065;48.884;12.598;2022-07-23T09:01:48;28.10;67.90
64654;DHT22;51065;48.884;12.598;2022-07-23T09:04:14;28.20;67.40
64654;DHT22;51065;48.884;12.598;2022-07-23T09:06:40;28.30;64.10
64654;DHT22;51065;48.884;12.598;2022-07-23T09:09:18;28.50;68.00
64654;DHT22;51065;48.884;12.598;2022-07-23T09:11:48;28.70;65.20
64654;DHT22;51065;48.884;12.598;2022-07-23T09:14:44;28.90;65.60
64654;DHT22;51065;48.884;12.598;2022-07-23T09:17:14;28.70;65.80
64654;DHT22;51065;48.884;12.598;2022-07-23T09:19:41;28.00;68.40
64654;DHT22;51065;48.884;12.598;2022-07-23T09:22:24;28.30;68.40
64654;DHT22;51065;48.884;12.598;2022-07-23T09:27:52;28.80;66.10
64654;DHT22;51065;48.884;12.598;2022-07-23T09:30:23;28.80;66.30
64654;DHT22;51065;48.884;12.598;2022-07-23T09:33:11;29.00;65.30
64654;DHT22;51065;48.884;12.598;2022-07-23T09:35:54;29.30;63.50
64654;DHT22;51065;48.884;12.598;2022-07-23T09:38:23;28.80;66.20
64654;DHT22;51065;48.884;12.598;2022-07-23T09:41:09;28.40;64.80
64654;DHT22;51065;48.884;12.598;2022-07-23T09:43:35;27.80;67.60
64654;DHT22;51065;48.884;12.598;2022-07-23T09:46:26;27.60;68.50
64654;DHT22;51065;48.884;12.598;2022-07-23T09:48:53;27.10;70.90
64654;DHT22;51065;48.884;12.598;2022-07-23T09:51:19;26.70;73.90
64654;DHT22;51065;48.884;12.598;2022-07-23T09:53:48;26.40;75.10
64654;DHT22;51065;48.884;12.598;2022-07-23T09:56:14;26.10;77.10
64654;DHT22;51065;48.884;12.598;2022-07-23T09:58:40;26.10;79.20
64654;DHT22;51065;48.884;12.598;2022-07-23T10:01:13;26.10;86.30
64654;DHT22;51065;48.884;12.598;2022-07-23T10:03:40;26.40;81.90
64654;DHT22;51065;48.884;12.598;2022-07-23T10:06:10;26.30;81.70
64654;DHT22;51065;48.884;12.598;2022-07-23T10:08:40;26.10;82.40
64654;DHT22;51065;48.884;12.598;2022-07-23T10:11:07;26.00;84.50
64654;DHT22;51065;48.884;12.598;2022-07-23T10:13:35;25.60;86.50
64654;DHT22;51065;48.884;12.598;2022-07-23T10:16:18;25.50;90.50
64654;DHT22;51065;48.884;12.598;2022-07-23T10:18:45;25.40;90.90
64654;DHT22;51065;48.884;12.598;2022-07-23T10:21:12;25.50;92.20
64654;DHT22;51065;48.884;12.598;2022-07-23T10:32:26;26.50;89.80
64654;DHT22;51065;48.884;12.598;2022-07-23T10:37:43;26.90;87.70
64654;DHT22;51065;48.884;12.598;2022-07-23T10:40:20;27.20;82.70
64654;DHT22;51065;48.884;12.598;2022-07-23T10:42:50;27.40;81.80
64654;DHT22;51065;48.884;12.598;2022-07-23T10:47:53;27.80;75.90
64654;DHT22;51065;48.884;12.598;2022-07-23T10:50:26;28.30;80.90
64654;DHT22;51065;48.884;12.598;2022-07-23T10:57:57;30.00;63.30
64654;DHT22;51065;48.884;12.598;2022-07-23T11:00:24;29.20;63.40
64654;DHT22;51065;48.884;12.598;2022-07-23T11:02:52;29.20;63.30
64654;DHT22;51065;48.884;12.598;2022-07-23T11:05:20;29.90;60.10
64654;DHT22;51065;48.884;12.598;2022-07-23T11:10:34;31.70;57.30
64654;DHT22;51065;48.884;12.598;2022-07-23T11:16:06;33.10;51.10
64654;DHT22;51065;48.884;12.598;2022-07-23T11:24:05;32.70;46.60
64654;DHT22;51065;48.884;12.598;2022-07-23T11:29:42;33.00;47.70
64654;DHT22;51065;48.884;12.598;2022-07-23T11:32:24;32.90;47.40
64654;DHT22;51065;48.884;12.598;2022-07-23T11:34:51;33.00;48.00
64654;DHT22;51065;48.884;12.598;2022-07-23T11:37:39;33.40;50.90
64654;DHT22;51065;48.884;12.598;2022-07-23T11:40:13;33.30;45.50
64654;DHT22;51065;48.884;12.598;2022-07-23T11:42:40;33.40;46.40
64654;DHT22;51065;48.884;12.598;2022-07-23T11:45:16;33.60;44.50
64654;DHT22;51065;48.884;12.598;2022-07-23T11:47:41;33.80;44.80
64654;DHT22;51065;48.884;12.598;2022-07-23T11:50:07;33.80;45.80
64654;DHT22;51065;48.884;12.598;2022-07-23T11:52:33;34.10;43.40
64654;DHT22;51065;48.884;12.598;2022-07-23T11:55:01;33.80;42.60
64654;DHT22;51065;48.884;12.598;2022-07-23T11:57:30;33.70;46.60
64654;DHT22;51065;48.884;12.598;2022-07-23T11:59:58;33.80;43.60
64654;DHT22;51065;48.884;12.598;2022-07-23T12:02:25;34.40;42.80
64654;DHT22;51065;48.884;12.598;2022-07-23T12:04:52;34.40;42.20
64654;DHT22;51065;48.884;12.598;2022-07-23T12:07:33;34.00;43.40
64654;DHT22;51065;48.884;12.598;2022-07-23T12:10:19;33.60;43.50
64654;DHT22;51065;48.884;12.598;2022-07-23T12:12:54;33.70;42.90
64654;DHT22;51065;48.884;12.598;2022-07-23T12:15:22;34.00;43.40
64654;DHT22;51065;48.884;12.598;2022-07-23T12:17:50;33.90;40.90
64654;DHT22;51065;48.884;12.598;2022-07-23T12:20:21;33.70;41.30
64654;DHT22;51065;48.884;12.598;2022-07-23T12:22:50;33.50;41.70
64654;DHT22;51065;48.884;12.598;2022-07-23T12:25:18;33.40;42.70
64654;DHT22;51065;48.884;12.598;2022-07-23T12:27:45;33.60;41.70
64654;DHT22;51065;48.884;12.598;2022-07-23T12:32:45;33.20;43.00
64654;DHT22;51065;48.884;12.598;2022-07-23T12:35:10;33.10;41.90
64654;DHT22;51065;48.884;12.598;2022-07-23T12:37:38;32.70;43.30
64654;DHT22;51065;48.884;12.598;2022-07-23T12:42:51;32.20;45.60
64654;DHT22;51065;48.884;12.598;2022-07-23T12:45:17;32.20;43.40
64654;DHT22;51065;48.884;12.598;2022-07-23T12:48:04;32.30;41.80
64654;DHT22;51065;48.884;12.598;2022-07-23T12:55:36;32.70;41.50
64654;DHT22;51065;48.884;12.598;2022-07-23T12:58:16;32.40;41.20
64654;DHT22;51065;48.884;12.598;2022-07-23T13:01:09;31.80;44.70
64654;DHT22;51065;48.884;12.598;2022-07-23T13:03:40;31.30;47.30
64654;DHT22;51065;48.884;12.598;2022-07-23T13:06:08;31.70;48.70
64654;DHT22;51065;48.884;12.598;2022-07-23T13:08:36;32.10;46.90
64654;DHT22;51065;48.884;12.598;2022-07-23T13:11:03;32.10;47.10
64654;DHT22;51065;48.884;12.598;2022-07-23T13:13:31;32.10;47.90
64654;DHT22;51065;48.884;12.598;2022-07-23T13:15:58;32.30;47.30
64654;DHT22;51065;48.884;12.598;2022-07-23T13:18:24;32.00;48.60
64654;DHT22;51065;48.884;12.598;2022-07-23T13:20:51;32.10;48.10
64654;DHT22;51065;48.884;12.598;2022-07-23T13:23:17;32.00;48.20
64654;DHT22;51065;48.884;12.598;2022-07-23T13:25:43;31.80;47.80
64654;DHT22;51065;48.884;12.598;2022-07-23T13:28:09;31.40;48.70
64654;DHT22;51065;48.884;12.598;2022-07-23T13:30:35;31.50;48.40
64654;DHT22;51065;48.884;12.598;2022-07-23T13:33:02;32.00;48.40
64654;DHT22;51065;48.884;12.598;2022-07-23T13:35:28;31.80;47.60
64654;DHT22;51065;48.884;12.598;2022-07-23T13:37:54;31.50;47.40
64654;DHT22;51065;48.884;12.598;2022-07-23T13:40:19;31.70;49.40
64654;DHT22;51065;48.884;12.598;2022-07-23T13:42:45;31.70;49.20
64654;DHT22;51065;48.884;12.598;2022-07-23T13:45:11;32.20;48.40
64654;DHT22;51065;48.884;12.598;2022-07-23T13:47:36;32.50;47.70
64654;DHT22;51065;48.884;12.598;2022-07-23T13:50:02;32.10;47.20
64654;DHT22;51065;48.884;12.598;2022-07-23T13:52:28;32.30;47.00
64654;DHT22;51065;48.884;12.598;2022-07-23T13:54:54;32.40;47.10
64654;DHT22;51065;48.884;12.598;2022-07-23T13:57:19;32.70;46.60
64654;DHT22;51065;48.884;12.598;2022-07-23T13:59:45;32.90;46.90
64654;DHT22;51065;48.884;12.598;2022-07-23T14:02:14;32.90;46.00
64654;DHT22;51065;48.884;12.598;2022-07-23T14:04:41;32.60;45.50
64654;DHT22;51065;48.884;12.598;2022-07-23T14:07:06;32.60;46.10
64654;DHT22;51065;48.884;12.598;2022-07-23T14:09:32;32.50;45.20
64654;DHT22;51065;48.884;12.598;2022-07-23T14:11:59;31.90;46.60
64654;DHT22;51065;48.884;12.598;2022-07-23T14:14:25;31.50;47.10
64654;DHT22;51065;48.884;12.598;2022-07-23T14:16:51;31.50;48.00
64654;DHT22;51065;48.884;12.598;2022-07-23T14:19:16;31.20;48.30
64654;DHT22;51065;48.884;12.598;2022-07-23T14:21:42;31.00;48.50
64654;DHT22;51065;48.884;12.598;2022-07-23T14:24:08;30.50;49.90
64654;DHT22;51065;48.884;12.598;2022-07-23T14:26:33;30.50;50.00
64654;DHT22;51065;48.884;12.598;2022-07-23T14:28:59;30.40;49.70
64654;DHT22;51065;48.884;12.598;2022-07-23T14:31:26;30.30;49.40
64654;DHT22;51065;48.884;12.598;2022-07-23T14:33:51;29.90;49.50
64654;DHT22;51065;48.884;12.598;2022-07-23T14:36:17;29.90;50.20
64654;DHT22;51065;48.884;12.598;2022-07-23T14:38:43;29.80;50.60
64654;DHT22;51065;48.884;12.598;2022-07-23T14:41:08;29.70;50.70
64654;DHT22;51065;48.884;12.598;2022-07-23T14:43:35;29.40;50.90
64654;DHT22;51065;48.884;12.598;2022-07-23T14:46:00;29.20;51.70
64654;DHT22;51065;48.884;12.598;2022-07-23T14:48:26;29.20;53.40
64654;DHT22;51065;48.884;12.598;2022-07-23T14:50:52;29.00;52.50
64654;DHT22;51065;48.884;12.598;2022-07-23T14:53:17;28.90;52.90
64654;DHT22;51065;48.884;12.598;2022-07-23T14:55:43;29.00;53.10
64654;DHT22;51065;48.884;12.598;2022-07-23T14:58:09;28.90;52.70
64654;DHT22;51065;48.884;12.598;2022-07-23T15:00:34;28.90;51.80
64654;DHT22;51065;48.884;12.598;2022-07-23T15:03:00;29.00;52.20
64654;DHT22;51065;48.884;12.598;2022-07-23T15:05:26;29.20;52.30
64654;DHT22;51065;48.884;12.598;2022-07-23T15:07:51;29.30;52.80
64654;DHT22;51065;48.884;12.598;2022-07-23T15:10:17;29.30;50.90
64654;DHT22;51065;48.884;12.598;2022-07-23T15:12:43;29.30;50.80
64654;DHT22;51065;48.884;12.598;2022-07-23T15:15:09;29.40;51.20
64654;DHT22;51065;48.884;12.598;2022-07-23T15:17:34;29.20;52.20
64654;DHT22;51065;48.884;12.598;2022-07-23T15:20:00;29.00;53.10
64654;DHT22;51065;48.884;12.598;2022-07-23T15:22:26;28.90;53.80
64654;DHT22;51065;48.884;12.598;2022-07-23T15:24:51;28.60;54.90
64654;DHT22;51065;48.884;12.598;2022-07-23T15:27:17;28.40;55.10
64654;DHT22;51065;48.884;12.598;2022-07-23T15:29:44;28.20;56.00
64654;DHT22;51065;48.884;12.598;2022-07-23T15:32:10;28.10;56.20
64654;DHT22;51065;48.884;12.598;2022-07-23T15:34:37;28.10;56.10
64654;DHT22;51065;48.884;12.598;2022-07-23T15:37:03;27.90;57.60
64654;DHT22;51065;48.884;12.598;2022-07-23T15:39:31;27.70;58.40
64654;DHT22;51065;48.884;12.598;2022-07-23T15:41:58;27.50;59.60
64654;DHT22;51065;48.884;12.598;2022-07-23T15:44:24;27.40;58.60
64654;DHT22;51065;48.884;12.598;2022-07-23T15:46:50;27.30;59.10
64654;DHT22;51065;48.884;12.598;2022-07-23T15:49:16;27.30;60.80
64654;DHT22;51065;48.884;12.598;2022-07-23T15:51:42;27.30;60.90
64654;DHT22;51065;48.884;12.598;2022-07-23T15:54:08;27.30;58.20
64654;DHT22;51065;48.884;12.598;2022-07-23T15:56:33;27.30;59.80
64654;DHT22;51065;48.884;12.598;2022-07-23T15:58:59;27.30;59.50
64654;DHT22;51065;48.884;12.598;2022-07-23T16:01:24;27.20;62.30